Time;durP1;ratioP1;P1;durP2;ratioP2;P2;SDS_P1;SDS_P2;PMS_P1;PMS_P2;Temp;Humidity;BMP_temperature;BMP_pressure;BME280_temperature;BME280_humidity;BME280_pressure;Samples;Min_cycle;Max_cycle;Signal;HPM_P1;HPM_P2
2023/10/18 00:04:33;;;;;;;8.67;6.73;;;;;;;;;;4880820;28;20209;-92
2023/10/18 00:07:34;;;;;;;;;;;;;;;;;;;;;
2023/10/18 00:19:43;;;;;;;7.00;6.23;;;;;;;;;;4892341;29;20284;-92
2023/10/18 00:25:32;;;;;;;15.70;10.27;;;;;;;;;;4827786;29;20276;-92
2023/10/18 00:31:29;;;;;;;13.20;9.50;;;;;;;;;;4992707;28;20224;-91
2023/10/18 00:34:29;;;;;;;7.53;5.30;;;;;;;;;;4952125;28;20264;-90
2023/10/18 00:37:22;;;;;;;13.53;11.23;;;;;;;;;;4957952;28;20210;-92
2023/10/18 00:41:00;;;;;;;15.67;8.97;;;;;;;;;;4932858;29;20218;-92
2023/10/18 00:43:45;;;;;;;18.53;14.03;;;;;;;;;;4875895;29;20267;-91
2023/10/18 00:47:00;;;;;;;8.73;7.13;;;;;;;;;;4958053;28;20216;-91
2023/10/18 00:50:03;;;;;;;11.90;9.10;;;;;;;;;;4865987;29;20212;-91
2023/10/18 00:53:02;;;;;;;13.60;12.17;;;;;;;;;;4967860;28;20329;-92
2023/10/18 00:56:07;;;;;;;;;;;;;;;;;;;;;
2023/10/18 00:59:00;;;;;;;;;;;;;;;;;;;;;
2023/10/18 01:01:58;;;;;;;15.60;13.83;;;;;;;;;;5054742;28;20273;-92
2023/10/18 01:05:19;;;;;;;;;;;;;;;;;;;;;
2023/10/18 01:30:44;;;;;;;12.70;8.70;;;;;;;;;;4946504;29;20225;-91
2023/10/18 01:33:45;;;;;;;;;;;;;;;;;;;;;
2023/10/18 01:36:44;;;;;;;11.33;9.70;;;;;;;;;;4956112;28;20227;-90
2023/10/18 01:39:34;;;;;;;17.70;13.83;;;;;;;;;;5016282;28;20239;-91
2023/10/18 01:42:52;;;;;;;;;;;;;;;;;;;;;
2023/10/18 01:51:49;;;;;;;;;;;;;;;;;;;;;
2023/10/18 01:57:48;;;;;;;9.77;7.50;;;;;;;;;;4986151;28;20235;-93
2023/10/18 02:01:08;;;;;;;;;;;;;;;;;;;;;
2023/10/18 02:04:04;;;;;;;11.83;9.13;;;;;;;;;;5013752;28;20263;-92
2023/10/18 02:07:27;;;;;;;;;;;;;;;;;;;;;
2023/10/18 02:10:41;;;;;;;12.87;9.47;;;;;;;;;;4973841;28;20209;-92
2023/10/18 02:14:01;;;;;;;;;;;;;;;;;;;;;
2023/10/18 02:16:59;;;;;;;4.13;3.63;;;;;;;;;;4917858;29;20211;-92
2023/10/18 02:30:15;;;;;;;;;;;;;;;;;;;;;
2023/10/18 02:45:23;;;;;;;17.93;8.83;;;;;;;;;;4901082;29;20243;-92
2023/10/18 02:48:40;;;;;;;;;;;;;;;;;;;;;
2023/10/18 02:51:51;;;;;;;20.70;12.17;;;;;;;;;;4976020;28;20307;-92
2023/10/18 02:55:10;;;;;;;16.47;11.23;;;;;;;;;;4989449;28;20239;-92
2023/10/18 02:58:38;;;;;;;;;;;;;;;;;;;;;
2023/10/18 03:02:00;;;;;;;;;;;;;;;;;;;;;
2023/10/18 03:05:11;;;;;;;;;;;;;;;;;;;;;
2023/10/18 03:08:10;;;;;;;;;;;;;;;;;;;;;
2023/10/18 03:11:23;;;;;;;11.60;7.80;;;;;;;;;;4956145;28;20213;-92
2023/10/18 03:17:40;;;;;;;;;;;;;;;;;;;;;
2023/10/18 03:20:32;;;;;;;3.43;3.13;;;;;;;;;;5012120;28;20227;-92
2023/10/18 03:23:17;;;;;;;8.07;5.30;;;;;;;;;;4953807;28;20211;-91
2023/10/18 03:26:33;;;;;;;;;;;;;;;;;;;;;
2023/10/18 03:29:47;;;;;;;9.23;7.90;;;;;;;;;;4846507;29;20236;-91
2023/10/18 03:33:01;;;;;;;;;;;;;;;;;;;;;
2023/10/18 03:36:42;;;;;;;;;;;;;;;;;;;;;
2023/10/18 03:39:54;;;;;;;14.30;10.23;;;;;;;;;;5010461;28;20247;-90
2023/10/18 03:42:45;;;;;;;15.03;10.33;;;;;;;;;;5052489;28;20301;-92
2023/10/18 03:49:17;;;;;;;20.23;13.43;;;;;;;;;;4971417;28;20248;-91
2023/10/18 04:18:13;;;;;;;12.93;7.37;;;;;;;;;;4950926;29;20240;-91
2023/10/18 04:21:13;;;;;;;;;;;;;;;;;;;;;
2023/10/18 04:27:23;;;;;;;15.83;10.70;;;;;;;;;;4824394;29;20213;-92
2023/10/18 04:30:42;;;;;;;;;;;;;;;;;;;;;
2023/10/18 04:34:04;;;;;;;;;;;;;;;;;;;;;
2023/10/18 04:37:01;;;;;;;12.20;9.30;;;;;;;;;;4877341;29;20204;-92
2023/10/18 04:46:25;;;;;;;;;;;;;;;;;;;;;
2023/10/18 04:49:32;;;;;;;;;;;;;;;;;;;;;
2023/10/18 04:53:00;;;;;;;;;;;;;;;;;;;;;
2023/10/18 04:56:29;;;;;;;5.20;4.73;;;;;;;;;;4961904;28;20235;-92
2023/10/18 05:00:00;;;;;;;11.87;9.50;;;;;;;;;;4897153;29;20306;-92
2023/10/18 05:03:14;;;;;;;14.13;11.70;;;;;;;;;;4855232;29;20217;-92
2023/10/18 05:06:28;;;;;;;17.50;13.27;;;;;;;;;;4783973;30;20220;-92
2023/10/18 05:12:46;;;;;;;17.53;12.87;;;;;;;;;;4880733;29;20231;-92
2023/10/18 05:15:53;;;;;;;6.97;5.60;;;;;;;;;;4898395;28;20235;-92
2023/10/18 05:18:42;;;;;;;10.40;6.13;;;;;;;;;;5024033;28;20210;-92
2023/10/18 05:21:20;;;;;;;13.17;9.03;;;;;;;;;;5066058;28;20209;-91
2023/10/18 05:23:52;;;;;;;6.77;4.43;;;;;;;;;;5093277;28;20192;-91
2023/10/18 05:26:24;;;;;;;4.10;3.63;;;;;;;;;;5093024;28;20193;-92
2023/10/18 05:29:00;;;;;;;15.33;10.67;;;;;;;;;;5093804;28;20498;-93
2023/10/18 05:32:05;;;;;;;6.50;5.80;;;;;;;;;;5093450;28;20266;-91
2023/10/18 05:48:03;;;;;;;11.43;6.93;;;;;;;;;;6256426;22;20512;-87
2023/10/18 05:50:35;;;;;;;16.57;10.47;;;;;;;;;;6253657;23;20451;-88
2023/10/18 05:53:10;;;;;;;10.27;7.97;;;;;;;;;;6253089;23;20478;-90
2023/10/18 05:55:39;;;;;;;9.00;6.73;;;;;;;;;;6252464;23;20192;-89
2023/10/18 05:58:08;;;;;;;14.80;12.27;;;;;;;;;;6254184;23;20175;-93
2023/10/18 06:00:37;;;;;;;16.50;9.40;;;;;;;;;;6255125;23;20252;-93
2023/10/18 06:03:09;;;;;;;20.97;13.63;;;;;;;;;;6254292;23;20165;-92
2023/10/18 06:05:38;;;;;;;14.97;10.50;;;;;;;;;;6254215;23;20191;-92
2023/10/18 06:08:07;;;;;;;11.67;8.97;;;;;;;;;;6254860;23;20165;-92
2023/10/18 06:10:38;;;;;;;19.70;13.40;;;;;;;;;;6254431;23;20192;-92
2023/10/18 06:13:10;;;;;;;9.97;7.40;;;;;;;;;;6254323;23;20169;-93
2023/10/18 06:15:44;;;;;;;8.90;7.90;;;;;;;;;;6253373;23;20193;-93
2023/10/18 06:18:18;;;;;;;10.87;9.70;;;;;;;;;;6255511;23;20183;-93
2023/10/18 06:20:46;;;;;;;18.07;13.40;;;;;;;;;;6258525;23;20174;-93
2023/10/18 06:23:36;;;;;;;23.00;13.10;;;;;;;;;;6258235;23;20181;-93
2023/10/18 06:28:53;;;;;;;18.13;15.20;;;;;;;;;;6252589;23;20203;-87
2023/10/18 06:31:24;;;;;;;13.23;9.30;;;;;;;;;;6252339;23;20185;-87
2023/10/18 06:33:56;;;;;;;12.00;7.37;;;;;;;;;;6253052;23;20166;-87
2023/10/18 06:36:25;;;;;;;17.70;13.20;;;;;;;;;;6252590;23;20276;-87
2023/10/18 06:38:54;;;;;;;10.30;7.10;;;;;;;;;;6252990;23;20174;-86
2023/10/18 06:41:23;;;;;;;13.00;9.63;;;;;;;;;;6252150;23;20169;-87
2023/10/18 06:43:52;;;;;;;17.20;11.20;;;;;;;;;;6252281;23;20223;-87
2023/10/18 06:46:27;;;;;;;15.33;9.43;;;;;;;;;;6248542;23;20214;-87
2023/10/18 06:48:58;;;;;;;13.13;10.33;;;;;;;;;;6245192;23;20169;-87
2023/10/18 06:51:43;;;;;;;16.30;10.87;;;;;;;;;;6244554;23;20169;-87
2023/10/18 06:54:14;;;;;;;15.73;11.73;;;;;;;;;;6245166;23;20196;-87
2023/10/18 06:56:46;;;;;;;12.23;8.13;;;;;;;;;;6244979;23;20186;-87
2023/10/18 06:59:15;;;;;;;9.97;6.57;;;;;;;;;;6245985;23;20212;-87
2023/10/18 07:01:53;;;;;;;4.17;3.87;;;;;;;;;;6244932;23;20228;-87
2023/10/18 07:04:28;;;;;;;17.17;11.57;;;;;;;;;;6245704;23;20169;-87
2023/10/18 07:06:57;;;;;;;10.57;8.43;;;;;;;;;;6245102;23;20175;-86
2023/10/18 07:09:26;;;;;;;6.07;4.87;;;;;;;;;;6245243;23;20174;-87
2023/10/18 07:11:57;;;;;;;12.57;9.33;;;;;;;;;;6244338;23;20181;-86
2023/10/18 07:14:26;;;;;;;15.83;11.30;;;;;;;;;;6245335;23;20560;-87
2023/10/18 07:16:55;;;;;;;14.87;11.87;;;;;;;;;;6244727;23;20194;-87
2023/10/18 07:19:29;;;;;;;5.10;4.53;;;;;;;;;;6244785;23;20196;-86
2023/10/18 07:21:59;;;;;;;4.90;4.50;;;;;;;;;;6245172;23;20257;-87
2023/10/18 07:24:34;;;;;;;4.60;4.30;;;;;;;;;;6245297;23;20194;-87
2023/10/18 07:27:04;;;;;;;18.37;11.13;;;;;;;;;;6245344;23;20169;-86
2023/10/18 07:29:36;;;;;;;12.97;8.43;;;;;;;;;;6244223;23;20168;-87
2023/10/18 07:32:12;;;;;;;13.03;7.17;;;;;;;;;;6244770;23;20170;-86
2023/10/18 07:34:43;;;;;;;7.93;6.43;;;;;;;;;;6245311;23;20210;-87
2023/10/18 07:37:19;;;;;;;12.33;8.33;;;;;;;;;;6244281;23;20187;-86
2023/10/18 07:39:56;;;;;;;9.83;6.93;;;;;;;;;;6244197;23;20166;-87
2023/10/18 07:42:34;;;;;;;10.47;8.87;;;;;;;;;;6242581;23;20530;-86
2023/10/18 07:45:04;;;;;;;9.70;7.40;;;;;;;;;;6245103;23;20167;-87
2023/10/18 07:47:37;;;;;;;10.17;7.60;;;;;;;;;;6243713;23;20202;-87
2023/10/18 07:50:34;;;;;;;10.43;9.33;;;;;;;;;;6242778;23;20210;-86
2023/10/18 07:53:00;;;;;;;4.37;3.87;;;;;;;;;;6243815;23;20175;-87
2023/10/18 07:55:36;;;;;;;12.07;9.73;;;;;;;;;;6242436;23;20174;-87
2023/10/18 07:58:17;;;;;;;12.40;9.63;;;;;;;;;;6239918;23;20214;-87
2023/10/18 08:01:07;;;;;;;10.63;8.13;;;;;;;;;;6239381;23;20205;-87
2023/10/18 08:03:38;;;;;;;5.77;4.23;;;;;;;;;;6239727;23;20191;-87
2023/10/18 08:06:16;;;;;;;9.60;8.60;;;;;;;;;;6240710;23;20247;-87
2023/10/18 08:08:47;;;;;;;13.87;9.67;;;;;;;;;;6239815;23;20194;-87
2023/10/18 08:11:20;;;;;;;11.47;6.07;;;;;;;;;;6240311;23;20182;-87
2023/10/18 08:13:49;;;;;;;7.67;5.17;;;;;;;;;;6240585;23;20183;-87
2023/10/18 08:16:21;;;;;;;13.57;8.97;;;;;;;;;;6240681;23;20175;-87
2023/10/18 08:18:59;;;;;;;12.37;9.30;;;;;;;;;;6240039;23;20186;-87
2023/10/18 08:21:36;;;;;;;3.03;2.80;;;;;;;;;;6230348;23;20183;-87
2023/10/18 08:24:10;;;;;;;10.17;7.53;;;;;;;;;;6228670;23;20183;-88
2023/10/18 08:26:47;;;;;;;10.20;7.40;;;;;;;;;;6228299;23;20258;-88
2023/10/18 08:29:16;;;;;;;11.40;8.53;;;;;;;;;;6228719;23;20185;-87
2023/10/18 08:31:48;;;;;;;9.30;6.40;;;;;;;;;;6228568;23;20176;-88
2023/10/18 08:34:18;;;;;;;7.43;5.60;;;;;;;;;;6228200;23;20191;-87
2023/10/18 08:36:50;;;;;;;16.17;10.97;;;;;;;;;;6228982;23;20179;-87
2023/10/18 08:39:25;;;;;;;8.23;4.97;;;;;;;;;;6226977;23;20179;-87
2023/10/18 08:41:56;;;;;;;7.63;5.50;;;;;;;;;;6229025;23;20201;-87
2023/10/18 08:44:26;;;;;;;8.53;6.50;;;;;;;;;;6228589;23;20174;-87
2023/10/18 08:47:03;;;;;;;10.90;7.80;;;;;;;;;;6223214;23;20240;-87
2023/10/18 08:49:34;;;;;;;7.73;6.93;;;;;;;;;;6227723;23;20175;-87
2023/10/18 08:52:08;;;;;;;8.07;7.27;;;;;;;;;;6228665;23;20190;-86
2023/10/18 08:54:39;;;;;;;14.60;10.20;;;;;;;;;;6226866;23;20233;-87
2023/10/18 08:57:10;;;;;;;10.17;8.93;;;;;;;;;;6225103;23;20200;-87
2023/10/18 08:59:46;;;;;;;9.47;7.57;;;;;;;;;;6226511;23;20263;-87
2023/10/18 09:02:18;;;;;;;11.53;9.67;;;;;;;;;;6226740;23;20174;-86
2023/10/18 09:04:48;;;;;;;14.67;11.70;;;;;;;;;;6227270;23;20249;-87
2023/10/18 09:07:22;;;;;;;14.33;10.37;;;;;;;;;;6228958;23;20228;-88
2023/10/18 09:09:55;;;;;;;9.33;7.60;;;;;;;;;;6227857;23;20174;-88
2023/10/18 09:12:33;;;;;;;12.17;9.00;;;;;;;;;;6227087;23;20203;-87
2023/10/18 09:15:27;;;;;;;7.10;6.37;;;;;;;;;;6229003;23;20175;-89
2023/10/18 09:17:57;;;;;;;9.20;7.20;;;;;;;;;;6227001;23;20203;-88
2023/10/18 09:20:27;;;;;;;11.10;7.23;;;;;;;;;;6227008;23;20284;-87
2023/10/18 09:23:01;;;;;;;10.90;7.20;;;;;;;;;;6226699;23;20234;-88
2023/10/18 09:25:33;;;;;;;6.13;4.97;;;;;;;;;;6225326;23;20179;-88
2023/10/18 09:28:10;;;;;;;9.50;6.73;;;;;;;;;;6226571;23;20169;-88
2023/10/18 09:30:39;;;;;;;11.30;8.13;;;;;;;;;;6227111;23;20188;-87
2023/10/18 09:33:13;;;;;;;7.83;6.50;;;;;;;;;;6228666;23;20171;-91
2023/10/18 09:35:47;;;;;;;13.00;7.70;;;;;;;;;;6228456;23;20204;-88
2023/10/18 09:38:18;;;;;;;9.53;6.30;;;;;;;;;;6228578;23;20246;-88
2023/10/18 09:40:48;;;;;;;8.83;7.03;;;;;;;;;;6228888;23;20236;-86
2023/10/18 09:43:16;;;;;;;10.50;7.87;;;;;;;;;;6228978;23;20174;-86
2023/10/18 09:45:46;;;;;;;4.53;3.30;;;;;;;;;;6229755;23;20173;-86
2023/10/18 09:48:15;;;;;;;10.87;7.30;;;;;;;;;;6227011;23;20202;-86
2023/10/18 09:50:44;;;;;;;7.60;6.60;;;;;;;;;;6227707;23;20209;-86
2023/10/18 09:53:14;;;;;;;13.93;7.67;;;;;;;;;;6228115;23;20224;-85
2023/10/18 09:55:44;;;;;;;7.23;5.17;;;;;;;;;;6225825;23;20178;-85
2023/10/18 09:58:18;;;;;;;9.53;7.30;;;;;;;;;;6228643;23;20221;-86
2023/10/18 10:00:56;;;;;;;9.27;6.97;;;;;;;;;;6229274;23;20223;-85
2023/10/18 10:03:26;;;;;;;6.73;5.27;;;;;;;;;;6227351;23;20169;-86
2023/10/18 10:05:57;;;;;;;11.13;6.27;;;;;;;;;;6227753;23;20264;-86
2023/10/18 10:08:31;;;;;;;8.63;6.67;;;;;;;;;;6228579;23;20432;-88
2023/10/18 10:11:13;;;;;;;11.37;7.30;;;;;;;;;;6227053;23;20212;-88
2023/10/18 10:13:44;;;;;;;5.40;4.90;;;;;;;;;;6227245;23;20204;-88
2023/10/18 10:16:15;;;;;;;7.40;5.90;;;;;;;;;;6227031;23;20181;-88
2023/10/18 10:18:47;;;;;;;8.10;7.13;;;;;;;;;;6227349;23;20207;-89
2023/10/18 10:21:22;;;;;;;7.27;5.43;;;;;;;;;;6229156;23;20226;-88
2023/10/18 10:23:55;;;;;;;8.43;6.07;;;;;;;;;;6228565;23;20176;-88
2023/10/18 10:26:29;;;;;;;8.93;6.70;;;;;;;;;;6228976;23;20223;-88
2023/10/18 10:29:33;;;;;;;5.03;3.67;;;;;;;;;;6228135;23;20184;-88
2023/10/18 10:32:05;;;;;;;10.93;6.23;;;;;;;;;;6229455;23;20220;-89
2023/10/18 10:34:37;;;;;;;10.63;7.57;;;;;;;;;;6228774;23;20180;-88
2023/10/18 10:37:11;;;;;;;5.80;4.53;;;;;;;;;;6229568;23;20181;-87
2023/10/18 10:39:45;;;;;;;5.97;4.90;;;;;;;;;;6227800;23;20189;-88
2023/10/18 10:42:41;;;;;;;4.10;3.30;;;;;;;;;;6228564;23;20178;-88
2023/10/18 10:45:23;;;;;;;10.10;7.43;;;;;;;;;;6228811;23;20186;-88
2023/10/18 10:47:57;;;;;;;11.23;7.87;;;;;;;;;;6226323;23;20219;-88
2023/10/18 10:50:45;;;;;;;8.53;7.67;;;;;;;;;;6229028;23;20185;-88
2023/10/18 10:53:30;;;;;;;7.13;6.17;;;;;;;;;;6227993;23;20174;-88
2023/10/18 10:55:59;;;;;;;11.23;6.23;;;;;;;;;;6228691;23;20260;-88
2023/10/18 10:58:38;;;;;;;9.30;6.23;;;;;;;;;;6229120;23;20221;-88
2023/10/18 11:01:12;;;;;;;12.10;8.47;;;;;;;;;;6227622;23;20174;-88
2023/10/18 11:03:54;;;;;;;7.63;5.60;;;;;;;;;;6229077;23;20268;-88
2023/10/18 11:06:34;;;;;;;14.30;6.70;;;;;;;;;;6227679;23;20178;-88
2023/10/18 11:09:03;;;;;;;8.37;6.47;;;;;;;;;;6228799;23;20174;-88
2023/10/18 11:11:32;;;;;;;8.47;6.43;;;;;;;;;;6227906;23;20177;-88
2023/10/18 11:14:05;;;;;;;8.70;6.60;;;;;;;;;;6228490;23;20184;-88
2023/10/18 11:16:35;;;;;;;6.33;4.83;;;;;;;;;;6228822;23;20174;-88
2023/10/18 11:19:08;;;;;;;8.23;7.30;;;;;;;;;;6230333;23;20201;-88
2023/10/18 11:21:38;;;;;;;11.97;7.93;;;;;;;;;;6227794;23;20260;-88
2023/10/18 11:24:13;;;;;;;4.90;4.47;;;;;;;;;;6228669;23;20225;-86
2023/10/18 11:26:46;;;;;;;8.33;6.63;;;;;;;;;;6227893;23;20201;-88
2023/10/18 11:29:24;;;;;;;8.70;5.63;;;;;;;;;;6228401;23;20285;-88
2023/10/18 11:31:55;;;;;;;15.27;7.43;;;;;;;;;;6227958;23;20173;-88
2023/10/18 11:34:25;;;;;;;7.03;6.37;;;;;;;;;;6228274;23;20293;-89
2023/10/18 11:36:55;;;;;;;10.87;6.63;;;;;;;;;;6227606;23;20292;-88
2023/10/18 11:39:29;;;;;;;5.90;4.67;;;;;;;;;;6229510;23;20193;-88
2023/10/18 11:41:59;;;;;;;6.63;5.20;;;;;;;;;;6242203;23;20165;-89
2023/10/18 11:44:39;;;;;;;5.97;3.93;;;;;;;;;;6244687;23;20240;-89
2023/10/18 11:47:18;;;;;;;7.07;5.07;;;;;;;;;;6241549;23;20205;-89
2023/10/18 11:49:50;;;;;;;4.67;4.23;;;;;;;;;;6244528;23;20162;-89
2023/10/18 11:52:21;;;;;;;8.47;4.60;;;;;;;;;;6245009;23;20170;-89
2023/10/18 11:54:53;;;;;;;7.67;6.20;;;;;;;;;;6245487;23;20205;-89
2023/10/18 11:57:26;;;;;;;6.17;5.57;;;;;;;;;;6245478;23;20197;-88
2023/10/18 12:00:17;;;;;;;9.60;6.37;;;;;;;;;;6245102;23;20217;-89
2023/10/18 12:02:46;;;;;;;7.10;4.63;;;;;;;;;;6245161;23;20165;-89
2023/10/18 12:05:16;;;;;;;6.23;5.63;;;;;;;;;;6244461;23;20177;-89
2023/10/18 12:07:49;;;;;;;6.47;5.63;;;;;;;;;;6243477;23;20165;-89
2023/10/18 12:10:25;;;;;;;5.63;4.20;;;;;;;;;;6244515;23;20166;-89
2023/10/18 12:12:59;;;;;;;8.93;5.93;;;;;;;;;;6245355;23;20244;-89
2023/10/18 12:15:30;;;;;;;9.10;6.03;;;;;;;;;;6245278;23;20166;-88
2023/10/18 12:18:03;;;;;;;7.73;6.87;;;;;;;;;;6243095;23;20166;-89
2023/10/18 12:20:43;;;;;;;6.70;5.17;;;;;;;;;;6244208;23;20197;-89
2023/10/18 12:23:13;;;;;;;8.60;6.33;;;;;;;;;;6244852;23;20188;-88
2023/10/18 12:25:44;;;;;;;7.47;5.60;;;;;;;;;;6244955;23;20170;-88
2023/10/18 12:28:15;;;;;;;7.50;4.87;;;;;;;;;;6244810;23;20392;-88
2023/10/18 12:30:51;;;;;;;5.37;4.80;;;;;;;;;;6244832;23;20169;-88
2023/10/18 12:33:23;;;;;;;5.53;4.50;;;;;;;;;;6244874;23;20165;-88
2023/10/18 12:35:58;;;;;;;7.97;4.77;;;;;;;;;;6245153;23;20180;-89
2023/10/18 12:38:32;;;;;;;6.13;5.03;;;;;;;;;;6245157;23;20252;-90
2023/10/18 12:41:18;;;;;;;7.77;5.80;;;;;;;;;;6245236;23;20204;-89
2023/10/18 12:43:47;;;;;;;6.60;5.37;;;;;;;;;;6245498;23;20169;-89
2023/10/18 12:46:19;;;;;;;7.07;6.17;;;;;;;;;;6245205;23;20206;-90
2023/10/18 12:48:49;;;;;;;6.90;6.00;;;;;;;;;;6214959;23;20192;-89
2023/10/18 12:51:18;;;;;;;8.93;5.63;;;;;;;;;;6215293;23;20174;-90
2023/10/18 12:53:47;;;;;;;6.30;4.63;;;;;;;;;;6215455;23;20171;-88
2023/10/18 12:56:23;;;;;;;6.77;5.07;;;;;;;;;;6214590;23;20175;-89
2023/10/18 12:58:57;;;;;;;6.77;5.80;;;;;;;;;;6214362;23;20170;-90
2023/10/18 13:01:32;;;;;;;11.17;6.80;;;;;;;;;;6215039;23;20166;-89
2023/10/18 13:04:06;;;;;;;8.53;7.73;;;;;;;;;;6215514;23;20167;-89
2023/10/18 13:06:35;;;;;;;8.40;5.33;;;;;;;;;;6216266;23;20174;-89
2023/10/18 13:09:18;;;;;;;9.43;6.87;;;;;;;;;;6214779;23;20169;-89
2023/10/18 13:12:07;;;;;;;5.13;3.10;;;;;;;;;;6215398;23;20167;-89
2023/10/18 13:14:39;;;;;;;3.63;3.13;;;;;;;;;;6216114;23;20177;-88
2023/10/18 13:17:13;;;;;;;8.80;6.40;;;;;;;;;;6214663;23;20175;-88
2023/10/18 13:19:44;;;;;;;4.40;3.73;;;;;;;;;;6215137;23;20204;-89
2023/10/18 13:22:18;;;;;;;5.00;3.90;;;;;;;;;;6215263;23;20174;-88
2023/10/18 13:24:47;;;;;;;5.57;4.20;;;;;;;;;;6215623;23;20177;-89
2023/10/18 13:27:18;;;;;;;7.27;4.90;;;;;;;;;;6214799;23;20175;-89
2023/10/18 13:30:00;;;;;;;6.30;5.70;;;;;;;;;;6215966;23;20191;-88
2023/10/18 13:32:32;;;;;;;7.37;5.70;;;;;;;;;;6216021;23;20167;-89
2023/10/18 13:35:12;;;;;;;8.70;5.40;;;;;;;;;;6214595;23;20171;-87
2023/10/18 13:37:41;;;;;;;7.03;5.30;;;;;;;;;;6214121;23;20182;-86
2023/10/18 13:40:18;;;;;;;8.37;6.73;;;;;;;;;;6215043;23;20205;-87
2023/10/18 13:42:49;;;;;;;8.07;6.77;;;;;;;;;;6214997;23;20198;-86
2023/10/18 13:45:18;;;;;;;6.67;5.10;;;;;;;;;;6213555;23;20205;-87
2023/10/18 13:47:48;;;;;;;2.57;2.37;;;;;;;;;;6232711;23;20209;-87
2023/10/18 13:50:17;;;;;;;7.43;5.37;;;;;;;;;;6244652;23;20377;-86
2023/10/18 13:52:49;;;;;;;4.13;3.73;;;;;;;;;;6245128;23;20196;-87
2023/10/18 13:55:18;;;;;;;7.13;4.90;;;;;;;;;;6243691;23;20173;-86
2023/10/18 13:57:46;;;;;;;6.67;3.37;;;;;;;;;;6245393;23;20196;-86
2023/10/18 14:00:18;;;;;;;5.23;3.80;;;;;;;;;;6246423;23;20162;-87
2023/10/18 14:02:47;;;;;;;5.03;3.43;;;;;;;;;;6246416;23;20170;-86
2023/10/18 14:05:19;;;;;;;10.60;6.20;;;;;;;;;;6246219;23;20178;-87
2023/10/18 14:07:52;;;;;;;4.17;3.77;;;;;;;;;;6246181;23;20167;-86
2023/10/18 14:10:27;;;;;;;12.17;5.70;;;;;;;;;;6245942;23;20276;-86
2023/10/18 14:13:03;;;;;;;10.70;7.47;;;;;;;;;;6247393;23;20169;-88
2023/10/18 14:15:34;;;;;;;7.90;6.00;;;;;;;;;;6245483;23;20253;-87
2023/10/18 14:18:03;;;;;;;4.63;4.00;;;;;;;;;;6245714;23;20181;-87
2023/10/18 14:20:37;;;;;;;6.50;4.83;;;;;;;;;;6245713;23;20186;-87
2023/10/18 14:23:09;;;;;;;4.60;3.53;;;;;;;;;;6246976;23;20205;-88
2023/10/18 14:25:39;;;;;;;5.00;3.60;;;;;;;;;;6246039;23;20176;-88
2023/10/18 14:28:08;;;;;;;3.97;3.57;;;;;;;;;;6246764;23;20180;-88
2023/10/18 14:30:37;;;;;;;4.27;3.43;;;;;;;;;;6222070;23;20181;-90
2023/10/18 14:33:10;;;;;;;5.63;4.87;;;;;;;;;;6249029;23;20177;-90
2023/10/18 14:35:53;;;;;;;5.80;4.83;;;;;;;;;;6247369;23;20213;-91
2023/10/18 14:38:23;;;;;;;5.77;4.67;;;;;;;;;;6246869;23;20170;-90
2023/10/18 14:40:52;;;;;;;3.23;2.93;;;;;;;;;;6247507;23;20166;-90
2023/10/18 14:43:37;;;;;;;4.87;4.03;;;;;;;;;;6246928;23;20170;-91
2023/10/18 14:46:10;;;;;;;3.03;2.83;;;;;;;;;;6246747;23;20200;-91
2023/10/18 14:48:40;;;;;;;5.43;4.93;;;;;;;;;;6246548;23;20201;-91
2023/10/18 14:51:10;;;;;;;7.47;4.90;;;;;;;;;;6246758;23;20190;-91
2023/10/18 14:53:40;;;;;;;7.17;5.70;;;;;;;;;;6245761;23;20179;-93
2023/10/18 14:56:12;;;;;;;5.00;4.50;;;;;;;;;;6246440;23;20157;-91
2023/10/18 14:58:41;;;;;;;5.57;3.17;;;;;;;;;;6247098;23;20223;-91
2023/10/18 15:01:13;;;;;;;6.63;3.63;;;;;;;;;;6246771;23;20230;-91
2023/10/18 15:03:42;;;;;;;3.80;2.83;;;;;;;;;;6246009;23;20233;-91
2023/10/18 15:06:16;;;;;;;4.30;3.80;;;;;;;;;;6246176;23;20475;-91
2023/10/18 15:08:46;;;;;;;5.50;4.30;;;;;;;;;;6246765;23;20174;-92
2023/10/18 15:11:17;;;;;;;7.60;6.10;;;;;;;;;;6246128;23;20200;-91
2023/10/18 15:13:47;;;;;;;7.60;6.43;;;;;;;;;;6247079;23;20204;-91
2023/10/18 15:16:18;;;;;;;5.13;4.60;;;;;;;;;;6246555;23;20169;-91
2023/10/18 15:18:47;;;;;;;9.50;3.93;;;;;;;;;;6245800;23;20192;-91
2023/10/18 15:21:19;;;;;;;3.93;3.60;;;;;;;;;;6246188;23;20261;-91
2023/10/18 15:23:49;;;;;;;5.30;4.80;;;;;;;;;;6246342;23;20174;-91
2023/10/18 15:26:19;;;;;;;0.87;0.87;;;;;;;;;;6247096;23;20180;-91
2023/10/18 15:28:51;;;;;;;9.17;5.70;;;;;;;;;;6247185;23;20174;-91
2023/10/18 15:31:21;;;;;;;3.43;3.13;;;;;;;;;;6246030;23;20235;-91
2023/10/18 15:33:51;;;;;;;6.00;5.03;;;;;;;;;;6246044;23;20180;-91
2023/10/18 15:36:22;;;;;;;6.73;5.80;;;;;;;;;;6246599;23;20252;-92
2023/10/18 15:38:53;;;;;;;3.87;3.57;;;;;;;;;;6246812;23;20425;-92
2023/10/18 15:41:23;;;;;;;4.13;3.23;;;;;;;;;;6245285;23;20174;-90
2023/10/18 15:43:53;;;;;;;6.13;5.60;;;;;;;;;;6245826;23;20211;-91
2023/10/18 15:46:26;;;;;;;8.97;4.60;;;;;;;;;;6246668;23;20265;-90
2023/10/18 15:48:57;;;;;;;3.53;3.23;;;;;;;;;;6246639;23;20208;-91
2023/10/18 15:51:28;;;;;;;4.97;4.03;;;;;;;;;;6245610;23;20186;-91
2023/10/18 15:53:57;;;;;;;2.20;1.97;;;;;;;;;;6245843;23;20177;-92
2023/10/18 15:56:29;;;;;;;7.47;4.03;;;;;;;;;;6245658;23;20200;-91
2023/10/18 15:58:58;;;;;;;5.73;5.13;;;;;;;;;;6246263;23;20170;-93
2023/10/18 16:01:31;;;;;;;3.83;3.17;;;;;;;;;;6246328;23;20266;-91
2023/10/18 16:04:23;;;;;;;4.27;3.90;;;;;;;;;;6245788;23;20272;-91
2023/10/18 16:06:54;;;;;;;6.97;5.63;;;;;;;;;;6245630;23;20193;-91
2023/10/18 16:09:27;;;;;;;7.13;4.77;;;;;;;;;;6246725;23;20174;-91
2023/10/18 16:11:58;;;;;;;7.43;4.53;;;;;;;;;;6245886;23;20194;-91
2023/10/18 16:14:28;;;;;;;3.40;1.90;;;;;;;;;;6247053;23;20166;-91
2023/10/18 16:17:00;;;;;;;4.77;3.20;;;;;;;;;;6245737;23;20169;-90
2023/10/18 16:19:32;;;;;;;8.30;5.10;;;;;;;;;;6246603;23;20247;-92
2023/10/18 16:22:02;;;;;;;2.90;2.63;;;;;;;;;;6245792;23;20232;-91
2023/10/18 16:24:31;;;;;;;13.87;5.57;;;;;;;;;;6246365;23;20174;-91
2023/10/18 16:27:00;;;;;;;4.53;3.57;;;;;;;;;;6246046;23;20224;-91
2023/10/18 16:29:29;;;;;;;6.53;5.63;;;;;;;;;;6245912;23;20170;-91
2023/10/18 16:31:58;;;;;;;3.17;2.83;;;;;;;;;;6245504;23;20192;-91
2023/10/18 16:34:28;;;;;;;5.83;5.13;;;;;;;;;;6246081;23;20170;-91
2023/10/18 16:36:57;;;;;;;5.50;5.00;;;;;;;;;;6245193;23;20236;-90
2023/10/18 16:39:29;;;;;;;10.90;6.37;;;;;;;;;;6245419;23;20184;-91
2023/10/18 16:41:58;;;;;;;6.23;5.37;;;;;;;;;;6244737;23;20188;-91
2023/10/18 16:44:28;;;;;;;5.53;4.07;;;;;;;;;;6245555;23;20197;-91
2023/10/18 16:46:57;;;;;;;3.43;2.80;;;;;;;;;;6245661;23;20280;-91
2023/10/18 16:49:29;;;;;;;4.53;4.07;;;;;;;;;;6245250;23;20181;-91
2023/10/18 16:51:58;;;;;;;6.87;3.97;;;;;;;;;;6245218;23;20185;-91
2023/10/18 16:54:29;;;;;;;5.07;4.57;;;;;;;;;;6245542;23;20174;-91
2023/10/18 16:56:58;;;;;;;5.70;5.23;;;;;;;;;;6245737;23;20261;-91
2023/10/18 16:59:27;;;;;;;6.03;4.57;;;;;;;;;;6244932;23;20178;-90
2023/10/18 17:01:56;;;;;;;6.20;3.90;;;;;;;;;;6244989;23;20177;-90
2023/10/18 17:04:25;;;;;;;3.97;3.23;;;;;;;;;;6245756;23;20260;-91
2023/10/18 17:06:53;;;;;;;7.27;4.43;;;;;;;;;;6245078;23;20169;-91
2023/10/18 17:09:22;;;;;;;5.17;4.73;;;;;;;;;;6244668;23;20173;-91
2023/10/18 17:11:52;;;;;;;5.03;4.30;;;;;;;;;;6244906;23;20193;-92
2023/10/18 17:14:21;;;;;;;5.57;4.23;;;;;;;;;;6245866;23;20200;-91
2023/10/18 17:16:51;;;;;;;4.83;4.43;;;;;;;;;;6245648;23;20190;-92
2023/10/18 17:19:19;;;;;;;5.23;4.77;;;;;;;;;;6245180;23;20208;-91
2023/10/18 17:21:48;;;;;;;5.43;4.93;;;;;;;;;;6245803;23;20239;-92
2023/10/18 17:24:17;;;;;;;5.73;4.30;;;;;;;;;;6245848;23;20177;-91
2023/10/18 17:26:45;;;;;;;8.17;4.47;;;;;;;;;;6245222;23;20174;-91
2023/10/18 17:29:15;;;;;;;7.43;5.13;;;;;;;;;;6245170;22;20181;-90
2023/10/18 17:31:44;;;;;;;4.93;3.73;;;;;;;;;;6245159;23;20209;-91
2023/10/18 17:34:13;;;;;;;6.73;4.10;;;;;;;;;;6244785;23;20173;-91
2023/10/18 17:36:42;;;;;;;6.40;5.80;;;;;;;;;;6244022;23;20176;-92
2023/10/18 17:39:11;;;;;;;5.23;4.30;;;;;;;;;;6244709;23;20231;-92
2023/10/18 17:41:42;;;;;;;7.37;5.33;;;;;;;;;;6245649;23;20189;-91
2023/10/18 17:44:13;;;;;;;6.87;4.60;;;;;;;;;;6245489;23;20192;-95
2023/10/18 17:46:44;;;;;;;3.97;2.83;;;;;;;;;;6244862;23;20261;-92
2023/10/18 17:49:13;;;;;;;3.90;3.20;;;;;;;;;;6244684;23;20196;-92
2023/10/18 17:51:42;;;;;;;4.77;4.27;;;;;;;;;;6245698;23;20169;-93
2023/10/18 17:54:15;;;;;;;6.07;5.13;;;;;;;;;;6245447;23;20241;-93
2023/10/18 17:56:45;;;;;;;7.37;4.13;;;;;;;;;;6245593;23;20181;-92
2023/10/18 17:59:18;;;;;;;4.60;3.63;;;;;;;;;;6244741;23;20257;-92
2023/10/18 18:01:51;;;;;;;5.50;4.87;;;;;;;;;;6245683;23;20256;-94
2023/10/18 18:04:21;;;;;;;4.93;4.30;;;;;;;;;;6245526;23;20264;-93
2023/10/18 18:06:52;;;;;;;7.30;4.33;;;;;;;;;;6245213;23;20219;-92
2023/10/18 18:09:22;;;;;;;5.47;4.40;;;;;;;;;;6246143;23;20174;-93
2023/10/18 18:11:53;;;;;;;4.90;4.30;;;;;;;;;;6246101;23;20173;-92
2023/10/18 18:14:24;;;;;;;5.53;4.87;;;;;;;;;;6245592;23;20429;-91
2023/10/18 18:16:54;;;;;;;5.63;3.23;;;;;;;;;;6244835;23;20184;-92
2023/10/18 18:19:24;;;;;;;5.67;4.10;;;;;;;;;;6245089;23;20189;-93
2023/10/18 18:21:54;;;;;;;4.87;3.70;;;;;;;;;;6245636;23;20252;-92
2023/10/18 18:24:22;;;;;;;5.70;4.90;;;;;;;;;;6245718;23;20177;-91
2023/10/18 18:26:51;;;;;;;5.37;4.60;;;;;;;;;;6244560;23;20205;-92